MV Alemania — V2OG7 — position and weather

sailwx.info

Track history (hours):
 
Tides and Currents Weather Stations Pressure Air Temp Water Temp Dewpoint Dewpoint Depression Visibility Wind Speed Wind Dir Waves Ship Positions

MV Alemania

Last reported at 2015-Mar-29 09:32 UTC. Time now 2015-Mar-31 05:25 UTC.
Position N 37°26' E 023°41'.

Length 133 m; draft 7.7 m.

Type: Cargo ship. MMSI: 304010613.

Date/timePositionNaut miles runAvg speedWind from/ knotsBaromVisibWave heightAir tempDewpointWater temp
2015-Mar-29 09:32N 37°26' E 023°41'1212.3
2015-Mar-29 08:34N 37°38' E 023°42'1212.0
2015-Mar-29 07:34N 37°49' E 023°37'8 8.4
2015-Mar-29 06:34N 37°57' E 023°36'0 0.0
2015-Mar-29 05:32N 37°57' E 023°36'0 0.0
2015-Mar-29 04:32N 37°57' E 023°36'0 0.0
2015-Mar-29 03:32N 37°57' E 023°36'0 0.0
2015-Mar-29 02:31N 37°57' E 023°36'0 0.0
2015-Mar-29 01:28N 37°57' E 023°36'0 0.0
2015-Mar-29 00:33N 37°57' E 023°36'0 0.0
2015-Mar-28 23:33N 37°57' E 023°36'0 0.0
2015-Mar-28 22:32N 37°57' E 023°36'0 0.0
2015-Mar-28 21:32N 37°57' E 023°36'0 0.0
2015-Mar-28 20:32N 37°57' E 023°36'0 0.0
2015-Mar-28 19:31N 37°57' E 023°36'0 0.0
2015-Mar-28 18:31N 37°57' E 023°36'0 0.0
2015-Mar-28 17:33N 37°57' E 023°36'0 0.0
2015-Mar-28 16:33N 37°57' E 023°36'0 0.0
2015-Mar-28 15:33N 37°57' E 023°36'0 0.0
2015-Mar-28 14:32N 37°57' E 023°36'0 0.0
2015-Mar-28 13:25N 37°57' E 023°36'0 0.0
2015-Mar-28 12:31N 37°57' E 023°36'0 0.0
2015-Mar-28 11:31N 37°57' E 023°36'0 0.0
2015-Mar-28 10:33N 37°57' E 023°36'0 0.0
2015-Mar-28 09:33N 37°57' E 023°36'0 0.0
2015-Mar-28 08:32N 37°57' E 023°36'0 0.0
2015-Mar-28 07:32N 37°57' E 023°36'0 0.0
2015-Mar-28 06:32N 37°57' E 023°36'0 0.0
2015-Mar-28 05:31N 37°57' E 023°36'0 0.0
2015-Mar-28 04:31N 37°57' E 023°36'0 0.0
2015-Mar-28 03:33N 37°57' E 023°36'0 0.0
2015-Mar-28 02:33N 37°57' E 023°36'0 0.0
2015-Mar-28 01:32N 37°57' E 023°36'0 0.0
2015-Mar-28 00:29N 37°57' E 023°36'0 0.0
2015-Mar-27 23:31N 37°57' E 023°36'0 0.0
2015-Mar-27 22:31N 37°57' E 023°36'0 0.0
2015-Mar-27 21:28N 37°57' E 023°36'0 0.0
2015-Mar-27 20:33N 37°57' E 023°36'0 0.0
2015-Mar-27 19:33N 37°57' E 023°36'0 0.0
2015-Mar-27 18:32N 37°57' E 023°36'0 0.0
2015-Mar-27 17:32N 37°57' E 023°36'0 0.0
2015-Mar-27 16:28N 37°57' E 023°36'0 0.4
2015-Mar-27 15:33N 37°57' E 023°36'4 3.5
2015-Mar-27 14:33N 37°54' E 023°34'3 2.5
2015-Mar-27 13:32N 37°53' E 023°31'0 0.0
2015-Mar-27 12:31N 37°53' E 023°31'0 0.0
2015-Mar-27 11:31N 37°53' E 023°31'0 0.0
2015-Mar-27 10:33N 37°53' E 023°31'0 0.0
2015-Mar-27 09:33N 37°53' E 023°31'0 0.0
2015-Mar-27 08:32N 37°53' E 023°31'0 0.0
2015-Mar-27 07:32N 37°53' E 023°31'0 0.0
2015-Mar-27 06:31N 37°53' E 023°31'0 0.0
2015-Mar-27 05:31N 37°53' E 023°31'0 0.0
2015-Mar-27 04:31N 37°53' E 023°31'0 0.0
2015-Mar-27 03:33N 37°53' E 023°31'0 0.0
2015-Mar-27 02:33N 37°53' E 023°31'0 0.0
2015-Mar-27 01:32N 37°53' E 023°31'0 0.0
2015-Mar-27 00:29N 37°53' E 023°31'0 0.0
2015-Mar-26 23:31N 37°53' E 023°31'0 0.0
2015-Mar-26 22:31N 37°53' E 023°31'0 0.0
2015-Mar-26 21:31N 37°53' E 023°31'0 0.0
2015-Mar-26 20:33N 37°53' E 023°31'0 0.1
2015-Mar-26 19:33N 37°53' E 023°31'0 0.0
2015-Mar-26 18:29N 37°53' E 023°31'0 0.0
2015-Mar-26 17:32N 37°53' E 023°31'0 0.0
2015-Mar-26 16:28N 37°53' E 023°31'0 0.0
2015-Mar-26 15:31N 37°53' E 023°31'0 0.0
2015-Mar-26 14:34N 37°53' E 023°31'0 0.0
2015-Mar-26 13:33N 37°53' E 023°31'0 0.1
2015-Mar-26 12:33N 37°53' E 023°32'0 0.0
2015-Mar-26 11:29N 37°53' E 023°32'1 1.4
2015-Mar-26 10:34N 37°54' E 023°32'4 3.9
2015-Mar-26 09:33N 37°54' E 023°37'6 6.3
2015-Mar-26 08:33N 37°48' E 023°41'8 7.5
2015-Mar-26 07:33N 37°41' E 023°45'7 7.0
2015-Mar-26 06:33N 37°39' E 023°53'16210.7
2015-Mar-25 15:22N 39°53' E 025°50'14011.6
2015-Mar-25 03:17N 40°53' E 028°37'1012.6
2015-Mar-25 02:28N 40°55' E 028°50'1011.0
2015-Mar-25 01:33N 41°01' E 028°60'33 3.2
2015-Mar-24 15:19N 41°28' E 029°26'1011.3
2015-Mar-24 14:28N 41°32' E 029°37'40411.5
2015-Mar-23 03:26N 44°38' E 037°49'6 5.0
2015-Mar-23 02:17N 44°43' E 037°49'0 0.0
2015-Mar-22 11:07N 44°43' E 037°49'1 0.1
2015-Mar-22 06:17N 44°43' E 037°48'7 7.0
2015-Mar-22 05:15N 44°36' E 037°52'7 9.7
2015-Mar-22 04:33N 44°30' E 037°49'10 9.1
2015-Mar-22 03:30N 44°21' E 037°43'2 0.5
2015-Mar-21 23:30N 44°23' E 037°44'1 0.2
2015-Mar-21 19:26N 44°24' E 037°44'0 0.2
2015-Mar-21 18:15N 44°24' E 037°44'6 0.6
2015-Mar-21 07:33N 44°26' E 037°51'4 3.7
2015-Mar-21 06:32N 44°30' E 037°51'1 0.6
2015-Mar-21 05:18N 44°29' E 037°51'0 0.5
2015-Mar-21 04:26N 44°29' E 037°51'1 0.5
2015-Mar-21 03:24N 44°28' E 037°51'1 0.6
2015-Mar-21 01:08N 44°27' E 037°52'9 0.9
2015-Mar-20 15:15N 44°33' E 037°42'1 0.8
2015-Mar-20 14:30N 44°32' E 037°42'2 0.8
2015-Mar-20 11:26N 44°30' E 037°44'3 1.1
2015-Mar-20 08:30N 44°28' E 037°48'6 3.0
2015-Mar-20 06:31N 44°31' E 037°40'2 1.6
2015-Mar-20 05:29N 44°32' E 037°40'2 1.4
2015-Mar-20 04:23N 44°31' E 037°42'3 1.4
2015-Mar-20 02:07N 44°29' E 037°45'1 1.4
2015-Mar-20 01:31N 44°29' E 037°46'1 1.3
2015-Mar-20 00:28N 44°28' E 037°48'1 1.1
2015-Mar-19 23:10N 44°27' E 037°49'1 1.0
2015-Mar-19 22:08N 44°26' E 037°50'2 1.0
2015-Mar-19 20:33N 44°25' E 037°52'13 4.4
2015-Mar-19 17:32N 44°31' E 037°35'1 0.8
2015-Mar-19 16:18N 44°31' E 037°36'1 0.7
2015-Mar-19 15:32N 44°31' E 037°37'1 0.9
2015-Mar-19 14:31N 44°31' E 037°38'3 1.1
2015-Mar-19 12:05N 44°30' E 037°42'1 1.2
2015-Mar-19 11:21N 44°29' E 037°43'2 1.5
2015-Mar-19 10:03N 44°28' E 037°45'  
Track history (hours):
 
Tides and Currents Weather Stations Pressure Air Temp Water Temp Dewpoint Dewpoint Depression Visibility Wind Speed Wind Dir Waves Ship Positions

MV Alemania

Last reported at 2015-Mar-29 09:32 UTC. Time now 2015-Mar-31 05:25 UTC.
Position N 37°26' E 023°41'.

Length 133 m; draft 7.7 m.

Type: Cargo ship. MMSI: 304010613.

Date/timePositionNaut miles runAvg speedWind from/ knotsBaromVisibWave heightAir tempDewpointWater temp
2015-Mar-29 09:32N 37°26' E 023°41'1212.3
2015-Mar-29 08:34N 37°38' E 023°42'1212.0
2015-Mar-29 07:34N 37°49' E 023°37'8 8.4
2015-Mar-29 06:34N 37°57' E 023°36'0 0.0
2015-Mar-29 05:32N 37°57' E 023°36'0 0.0
2015-Mar-29 04:32N 37°57' E 023°36'0 0.0
2015-Mar-29 03:32N 37°57' E 023°36'0 0.0
2015-Mar-29 02:31N 37°57' E 023°36'0 0.0
2015-Mar-29 01:28N 37°57' E 023°36'0 0.0
2015-Mar-29 00:33N 37°57' E 023°36'0 0.0
2015-Mar-28 23:33N 37°57' E 023°36'0 0.0
2015-Mar-28 22:32N 37°57' E 023°36'0 0.0
2015-Mar-28 21:32N 37°57' E 023°36'0 0.0
2015-Mar-28 20:32N 37°57' E 023°36'0 0.0
2015-Mar-28 19:31N 37°57' E 023°36'0 0.0
2015-Mar-28 18:31N 37°57' E 023°36'0 0.0
2015-Mar-28 17:33N 37°57' E 023°36'0 0.0
2015-Mar-28 16:33N 37°57' E 023°36'0 0.0
2015-Mar-28 15:33N 37°57' E 023°36'0 0.0
2015-Mar-28 14:32N 37°57' E 023°36'0 0.0
2015-Mar-28 13:25N 37°57' E 023°36'0 0.0
2015-Mar-28 12:31N 37°57' E 023°36'0 0.0
2015-Mar-28 11:31N 37°57' E 023°36'0 0.0
2015-Mar-28 10:33N 37°57' E 023°36'0 0.0
2015-Mar-28 09:33N 37°57' E 023°36'0 0.0
2015-Mar-28 08:32N 37°57' E 023°36'0 0.0
2015-Mar-28 07:32N 37°57' E 023°36'0 0.0
2015-Mar-28 06:32N 37°57' E 023°36'0 0.0
2015-Mar-28 05:31N 37°57' E 023°36'0 0.0
2015-Mar-28 04:31N 37°57' E 023°36'0 0.0
2015-Mar-28 03:33N 37°57' E 023°36'0 0.0
2015-Mar-28 02:33N 37°57' E 023°36'0 0.0
2015-Mar-28 01:32N 37°57' E 023°36'0 0.0
2015-Mar-28 00:29N 37°57' E 023°36'0 0.0
2015-Mar-27 23:31N 37°57' E 023°36'0 0.0
2015-Mar-27 22:31N 37°57' E 023°36'0 0.0
2015-Mar-27 21:28N 37°57' E 023°36'0 0.0
2015-Mar-27 20:33N 37°57' E 023°36'0 0.0
2015-Mar-27 19:33N 37°57' E 023°36'0 0.0
2015-Mar-27 18:32N 37°57' E 023°36'0 0.0
2015-Mar-27 17:32N 37°57' E 023°36'0 0.0
2015-Mar-27 16:28N 37°57' E 023°36'0 0.4
2015-Mar-27 15:33N 37°57' E 023°36'4 3.5
2015-Mar-27 14:33N 37°54' E 023°34'3 2.5
2015-Mar-27 13:32N 37°53' E 023°31'0 0.0
2015-Mar-27 12:31N 37°53' E 023°31'0 0.0
2015-Mar-27 11:31N 37°53' E 023°31'0 0.0
2015-Mar-27 10:33N 37°53' E 023°31'0 0.0
2015-Mar-27 09:33N 37°53' E 023°31'0 0.0
2015-Mar-27 08:32N 37°53' E 023°31'0 0.0
2015-Mar-27 07:32N 37°53' E 023°31'0 0.0
2015-Mar-27 06:31N 37°53' E 023°31'0 0.0
2015-Mar-27 05:31N 37°53' E 023°31'0 0.0
2015-Mar-27 04:31N 37°53' E 023°31'0 0.0
2015-Mar-27 03:33N 37°53' E 023°31'0 0.0
2015-Mar-27 02:33N 37°53' E 023°31'0 0.0
2015-Mar-27 01:32N 37°53' E 023°31'0 0.0
2015-Mar-27 00:29N 37°53' E 023°31'0 0.0
2015-Mar-26 23:31N 37°53' E 023°31'0 0.0
2015-Mar-26 22:31N 37°53' E 023°31'0 0.0
2015-Mar-26 21:31N 37°53' E 023°31'0 0.0
2015-Mar-26 20:33N 37°53' E 023°31'0 0.1
2015-Mar-26 19:33N 37°53' E 023°31'0 0.0
2015-Mar-26 18:29N 37°53' E 023°31'0 0.0
2015-Mar-26 17:32N 37°53' E 023°31'0 0.0
2015-Mar-26 16:28N 37°53' E 023°31'0 0.0
2015-Mar-26 15:31N 37°53' E 023°31'0 0.0
2015-Mar-26 14:34N 37°53' E 023°31'0 0.0
2015-Mar-26 13:33N 37°53' E 023°31'0 0.1
2015-Mar-26 12:33N 37°53' E 023°32'0 0.0
2015-Mar-26 11:29N 37°53' E 023°32'1 1.4
2015-Mar-26 10:34N 37°54' E 023°32'4 3.9
2015-Mar-26 09:33N 37°54' E 023°37'6 6.3
2015-Mar-26 08:33N 37°48' E 023°41'8 7.5
2015-Mar-26 07:33N 37°41' E 023°45'7 7.0
2015-Mar-26 06:33N 37°39' E 023°53'16210.7
2015-Mar-25 15:22N 39°53' E 025°50'14011.6
2015-Mar-25 03:17N 40°53' E 028°37'1012.6
2015-Mar-25 02:28N 40°55' E 028°50'1011.0
2015-Mar-25 01:33N 41°01' E 028°60'33 3.2
2015-Mar-24 15:19N 41°28' E 029°26'1011.3
2015-Mar-24 14:28N 41°32' E 029°37'40411.5
2015-Mar-23 03:26N 44°38' E 037°49'6 5.0
2015-Mar-23 02:17N 44°43' E 037°49'0 0.0
2015-Mar-22 11:07N 44°43' E 037°49'1 0.1
2015-Mar-22 06:17N 44°43' E 037°48'7 7.0
2015-Mar-22 05:15N 44°36' E 037°52'7 9.7
2015-Mar-22 04:33N 44°30' E 037°49'10 9.1
2015-Mar-22 03:30N 44°21' E 037°43'2 0.5
2015-Mar-21 23:30N 44°23' E 037°44'1 0.2
2015-Mar-21 19:26N 44°24' E 037°44'0 0.2
2015-Mar-21 18:15N 44°24' E 037°44'6 0.6
2015-Mar-21 07:33N 44°26' E 037°51'4 3.7
2015-Mar-21 06:32N 44°30' E 037°51'1 0.6
2015-Mar-21 05:18N 44°29' E 037°51'0 0.5
2015-Mar-21 04:26N 44°29' E 037°51'1 0.5
2015-Mar-21 03:24N 44°28' E 037°51'1 0.6
2015-Mar-21 01:08N 44°27' E 037°52'9 0.9
2015-Mar-20 15:15N 44°33' E 037°42'1 0.8
2015-Mar-20 14:30N 44°32' E 037°42'2 0.8
2015-Mar-20 11:26N 44°30' E 037°44'3 1.1
2015-Mar-20 08:30N 44°28' E 037°48'6 3.0
2015-Mar-20 06:31N 44°31' E 037°40'2 1.6
2015-Mar-20 05:29N 44°32' E 037°40'2 1.4
2015-Mar-20 04:23N 44°31' E 037°42'3 1.4
2015-Mar-20 02:07N 44°29' E 037°45'1 1.4
2015-Mar-20 01:31N 44°29' E 037°46'1 1.3
2015-Mar-20 00:28N 44°28' E 037°48'1 1.1
2015-Mar-19 23:10N 44°27' E 037°49'1 1.0
2015-Mar-19 22:08N 44°26' E 037°50'2 1.0
2015-Mar-19 20:33N 44°25' E 037°52'13 4.4
2015-Mar-19 17:32N 44°31' E 037°35'1 0.8
2015-Mar-19 16:18N 44°31' E 037°36'1 0.7
2015-Mar-19 15:32N 44°31' E 037°37'1 0.9
2015-Mar-19 14:31N 44°31' E 037°38'3 1.1
2015-Mar-19 12:05N 44°30' E 037°42'1 1.2
2015-Mar-19 11:21N 44°29' E 037°43'2 1.5
2015-Mar-19 10:03N 44°28' E 037°45'  

Dump ship's entire track history